Time;durP1;ratioP1;P1;durP2;ratioP2;P2;SDS_P1;SDS_P2;PMS_P1;PMS_P2;Temp;Humidity;BMP_temperature;BMP_pressure;BME280_temperature;BME280_humidity;BME280_pressure;Samples;Min_cycle;Max_cycle;Signal;HPM_P1;HPM_P2
2023/06/12 00:04:15;;;;;;;7.72;5.25;;;;;;;21.07;45.21;98923.59;7292368;39;20257;31
2023/06/12 00:14:38;;;;;;;6.43;4.80;;;;;;;21.09;45.19;98940.63;7298785;40;20255;31
2023/06/12 00:20:15;;;;;;;6.15;4.60;;;;;;;20.83;45.65;98936.50;7314934;39;20414;31
2023/06/12 00:25:35;;;;;;;5.40;4.90;;;;;;;20.61;45.84;98936.25;7301696;39;20245;31
2023/06/12 00:30:56;;;;;;;6.02;5.32;;;;;;;20.42;45.92;98936.59;7281528;40;20252;31
2023/06/12 00:36:32;;;;;;;6.07;4.93;;;;;;;20.38;47.25;98929.91;7320861;39;20319;31
2023/06/12 00:42:07;;;;;;;10.20;4.95;;;;;;;20.19;47.07;98929.97;7297772;39;20265;31
2023/06/12 00:47:42;;;;;;;6.05;4.70;;;;;;;20.08;48.21;98938.16;7280436;39;20260;31
2023/06/12 00:53:18;;;;;;;6.68;4.68;;;;;;;19.97;48.30;98936.22;7221587;40;20250;31
2023/06/12 00:58:53;;;;;;;6.05;5.00;;;;;;;19.94;47.70;98934.78;7229195;40;20334;31
2023/06/12 01:04:28;;;;;;;5.50;4.95;;;;;;;19.86;48.53;98937.03;7195795;40;20346;31
2023/06/12 01:10:05;;;;;;;5.10;4.32;;;;;;;19.87;48.75;98931.34;7191862;40;20257;31
2023/06/12 01:15:40;;;;;;;5.77;5.20;;;;;;;19.80;48.10;98942.34;7235620;40;20370;31
2023/06/12 01:26:59;;;;;;;9.20;4.40;;;;;;;20.01;47.96;98932.78;7299440;39;21080;31
2023/06/12 01:32:37;;;;;;;5.43;4.93;;;;;;;20.04;47.67;98942.44;7256848;40;20375;31
2023/06/12 01:38:10;;;;;;;4.93;4.43;;;;;;;19.90;48.65;98941.78;7207931;40;20249;31
2023/06/12 01:43:45;;;;;;;5.93;4.95;;;;;;;19.77;48.68;98944.72;7259046;40;20245;31
2023/06/12 01:49:21;;;;;;;5.30;4.80;;;;;;;19.62;49.11;98942.41;7259528;40;20252;31
2023/06/12 01:54:58;;;;;;;11.03;4.67;;;;;;;19.60;49.34;98941.81;7238274;40;20398;31
2023/06/12 02:06:32;;;;;;;4.70;4.30;;;;;;;19.49;49.91;98931.63;7239155;40;20253;31
2023/06/12 02:17:24;;;;;;;5.60;4.83;;;;;;;19.67;48.37;98945.28;7326726;39;20253;31
2023/06/12 02:28:04;;;;;;;10.20;4.90;;;;;;;19.67;48.93;98956.22;7287707;39;20332;31
2023/06/12 02:33:25;;;;;;;10.07;4.70;;;;;;;19.79;48.31;98957.09;7321034;39;20260;31
2023/06/12 02:38:44;;;;;;;7.30;4.50;;;;;;;19.78;48.72;98957.34;7293964;39;20406;31
2023/06/12 02:44:21;;;;;;;6.60;4.70;;;;;;;19.75;49.13;98966.81;7298376;39;20255;31
2023/06/12 02:49:44;;;;;;;6.80;4.70;;;;;;;19.91;48.38;98965.37;7228021;40;20264;31
2023/06/12 02:54:59;;;;;;;6.72;4.93;;;;;;;19.69;49.29;98962.31;7267128;40;20245;31
2023/06/12 03:00:37;;;;;;;7.10;4.50;;;;;;;19.36;50.87;98964.56;7266476;39;20408;31
2023/06/12 03:06:12;;;;;;;6.40;4.80;;;;;;;19.21;50.51;98966.88;7298720;39;20253;31
2023/06/12 03:11:47;;;;;;;7.60;4.70;;;;;;;19.11;51.21;98972.03;7331516;39;20261;31
2023/06/12 03:17:23;;;;;;;5.20;4.70;;;;;;;18.96;51.86;98977.84;7293910;39;20260;31
2023/06/12 03:28:00;;;;;;;6.67;4.73;;;;;;;18.88;51.27;98987.16;7304195;39;20265;31
2023/06/12 03:38:40;;;;;;;5.40;4.90;;;;;;;18.79;52.20;98998.59;7301231;39;21158;31
2023/06/12 03:44:15;;;;;;;5.75;5.00;;;;;;;18.86;51.67;98999.38;7360394;39;20326;31
2023/06/12 03:49:35;;;;;;;6.74;4.66;;;;;;;18.92;51.87;99003.94;7349923;39;20414;31
2023/06/12 03:55:13;;;;;;;5.80;5.10;;;;;;;19.04;51.79;99007.63;7340900;39;20244;31
2023/06/12 04:00:33;;;;;;;6.80;4.67;;;;;;;18.95;51.67;99006.25;7281166;40;20335;31
2023/06/12 04:05:54;;;;;;;6.53;4.63;;;;;;;19.07;51.33;99020.81;7273214;40;20241;31
2023/06/12 04:11:30;;;;;;;8.30;5.00;;;;;;;19.18;51.14;99022.78;7287062;40;20337;31
2023/06/12 04:17:05;;;;;;;6.90;4.87;;;;;;;19.08;52.94;99029.84;7254283;39;20322;31
2023/06/12 04:22:41;;;;;;;6.20;4.90;;;;;;;18.93;52.37;99024.72;7327266;39;20289;31
2023/06/12 04:28:21;;;;;;;5.63;5.10;;;;;;;19.02;52.26;99025.28;7318881;39;20363;31
2023/06/12 04:33:38;;;;;;;7.47;4.95;;;;;;;19.26;51.91;99027.97;7369631;39;20243;31
2023/06/12 04:39:13;;;;;;;10.47;5.57;;;;;;;19.31;51.99;99036.31;7354680;39;20364;31
2023/06/12 04:44:49;;;;;;;7.30;5.03;;;;;;;19.48;51.80;99020.22;7270592;39;20238;31
2023/06/12 04:50:26;;;;;;;9.23;4.97;;;;;;;19.47;52.02;99017.69;7040898;40;20343;31
2023/06/12 04:56:00;;;;;;;5.37;4.70;;;;;;;19.64;51.96;99029.69;7230527;40;20239;31
2023/06/12 05:01:35;;;;;;;5.33;4.83;;;;;;;19.86;51.09;99022.66;7225307;40;20428;31
2023/06/12 05:07:16;;;;;;;6.90;4.73;;;;;;;19.98;51.43;99017.22;7258598;40;20264;31
2023/06/12 05:12:35;;;;;;;5.93;4.70;;;;;;;20.20;51.04;99024.72;7282473;39;20303;31
2023/06/12 05:18:10;;;;;;;6.10;5.10;;;;;;;20.30;51.22;99021.44;7311691;39;20286;31
2023/06/12 05:28:50;;;;;;;8.27;4.60;;;;;;;20.69;50.01;99031.78;7255734;40;20277;31
2023/06/12 05:34:12;;;;;;;7.25;4.65;;;;;;;20.93;49.40;99042.78;7279254;40;20315;31
2023/06/12 05:39:49;;;;;;;6.40;4.30;;;;;;;21.08;49.27;99033.00;7291285;39;20251;31
2023/06/12 05:45:25;;;;;;;5.80;4.93;;;;;;;21.25;50.32;99027.66;7339270;39;20343;31
2023/06/12 05:51:01;;;;;;;5.55;4.75;;;;;;;21.45;50.03;99033.59;7255929;40;20238;31
2023/06/12 05:56:37;;;;;;;6.22;4.80;;;;;;;21.67;49.19;99038.44;7236675;40;20347;31
2023/06/12 06:02:14;;;;;;;7.53;4.60;;;;;;;21.76;48.36;99039.75;7234161;40;20262;31
2023/06/12 06:07:35;;;;;;;7.85;5.18;;;;;;;21.92;47.86;99045.34;7228501;40;20241;31
2023/06/12 06:13:11;;;;;;;5.90;5.10;;;;;;;22.03;47.88;99049.09;7243021;39;20342;31
2023/06/12 06:18:47;;;;;;;6.13;4.97;;;;;;;22.19;47.57;99062.06;7249498;39;20342;31
2023/06/12 06:24:23;;;;;;;7.57;5.27;;;;;;;22.28;47.62;99060.59;7206093;40;20340;31
2023/06/12 06:30:01;;;;;;;5.63;5.13;;;;;;;22.41;46.35;99060.28;7224694;40;20342;31
2023/06/12 06:35:36;;;;;;;10.00;4.90;;;;;;;22.57;46.57;99069.63;7236561;40;20345;31
2023/06/12 06:41:12;;;;;;;5.60;5.10;;;;;;;22.78;46.22;99068.94;7279486;39;20271;31
2023/06/12 06:51:53;;;;;;;6.65;5.30;;;;;;;23.08;46.57;99076.06;7244467;40;20257;31
2023/06/12 07:02:33;;;;;;;7.30;5.12;;;;;;;23.39;45.96;99066.34;7275263;39;21107;31
2023/06/12 07:08:08;;;;;;;8.10;5.00;;;;;;;23.61;46.30;99064.47;7345164;39;20263;31
2023/06/12 07:13:44;;;;;;;6.18;5.28;;;;;;;23.75;45.15;99061.13;7297611;39;20341;31
2023/06/12 07:19:04;;;;;;;11.75;6.28;;;;;;;24.02;44.86;99057.59;7298875;39;20252;31
2023/06/12 07:24:40;;;;;;;8.45;6.00;;;;;;;24.16;44.63;99039.63;7274822;39;20283;31
2023/06/12 07:35:06;;;;;;;10.65;6.30;;;;;;;24.62;45.34;99050.00;7229805;40;20597;31
2023/06/12 07:40:44;;;;;;;7.32;5.47;;;;;;;24.69;43.50;99049.81;7231193;40;20306;31
2023/06/12 07:46:05;;;;;;;5.63;5.03;;;;;;;24.78;44.46;99047.41;7275280;39;20268;31
2023/06/12 07:51:41;;;;;;;6.20;5.30;;;;;;;24.94;43.75;99046.47;7296976;39;20272;31
2023/06/12 07:57:20;;;;;;;5.76;4.54;;;;;;;25.21;43.85;99046.41;7308364;39;20441;31
2023/06/12 08:07:59;;;;;;;5.97;5.00;;;;;;;25.51;42.21;99030.84;7291408;39;21100;31
2023/06/12 08:13:36;;;;;;;6.50;4.65;;;;;;;25.62;42.30;99025.44;7264877;40;20328;31
2023/06/12 08:19:12;;;;;;;6.95;4.95;;;;;;;25.76;42.96;99037.62;7256168;39;20330;31
2023/06/12 08:24:47;;;;;;;7.55;4.55;;;;;;;26.05;41.62;99044.41;7278574;40;20377;31
2023/06/12 08:30:25;;;;;;;5.95;4.90;;;;;;;26.15;41.65;99027.03;7255105;40;20443;31
2023/06/12 08:36:00;;;;;;;6.65;4.80;;;;;;;26.37;41.26;99022.94;7309827;39;20286;31
2023/06/12 08:41:35;;;;;;;5.72;4.66;;;;;;;26.46;40.99;99037.91;7231896;40;20251;31
2023/06/12 08:47:11;;;;;;;6.42;5.36;;;;;;;26.51;40.35;99031.53;7246992;40;20342;31
2023/06/12 08:52:47;;;;;;;6.40;4.90;;;;;;;26.57;39.67;99026.88;7176975;40;20373;31
2023/06/12 09:03:27;;;;;;;6.72;4.57;;;;;;;26.77;40.21;99019.41;7210020;40;21204;31
2023/06/12 09:13:52;;;;;;;14.85;5.20;;;;;;;27.22;39.85;99018.59;7261033;39;20272;31
2023/06/12 09:24:33;;;;;;;4.90;4.40;;;;;;;27.43;39.29;99018.53;7307028;39;21165;31
2023/06/12 09:35:13;;;;;;;5.30;4.10;;;;;;;27.72;39.07;99012.13;7348318;39;20331;31
2023/06/12 09:40:49;;;;;;;4.62;4.22;;;;;;;27.87;37.79;99024.22;7296520;39;20296;31
2023/06/12 09:46:24;;;;;;;4.80;4.30;;;;;;;27.83;37.73;99014.84;7271386;40;20254;31
2023/06/12 09:52:01;;;;;;;5.32;4.26;;;;;;;27.85;37.11;99007.09;7197362;40;20607;31
2023/06/12 09:57:38;;;;;;;5.25;4.25;;;;;;;27.61;36.93;99010.47;7256238;40;20272;31
2023/06/12 10:03:14;;;;;;;5.30;4.50;;;;;;;27.90;36.77;99004.28;7226978;40;20367;31
2023/06/12 10:08:50;;;;;;;6.10;4.70;;;;;;;27.84;36.25;99009.03;7182095;40;20445;31
2023/06/12 10:14:26;;;;;;;7.75;4.00;;;;;;;27.85;34.90;99005.13;7248964;40;20420;31
2023/06/12 10:20:00;;;;;;;4.60;4.20;;;;;;;27.81;36.00;99017.06;7249194;40;20454;31
2023/06/12 10:25:35;;;;;;;4.68;4.20;;;;;;;28.15;35.89;98982.00;7225049;40;20258;31
2023/06/12 10:31:24;;;;;;;4.80;4.20;;;;;;;28.10;35.47;98995.91;7228055;40;20245;31
2023/06/12 10:37:00;;;;;;;6.00;4.40;;;;;;;28.13;34.18;98989.78;7251082;40;20419;31
2023/06/12 10:42:21;;;;;;;5.72;4.35;;;;;;;28.03;34.80;98989.81;7279291;39;20248;31
2023/06/12 10:47:57;;;;;;;8.00;4.30;;;;;;;28.25;34.64;98976.41;7310035;39;20244;31
2023/06/12 10:53:34;;;;;;;4.82;4.15;;;;;;;28.42;34.42;98974.06;7264042;40;20265;31
2023/06/12 10:59:11;;;;;;;5.55;4.40;;;;;;;28.65;33.70;98973.31;7245362;40;20253;31
2023/06/12 11:04:51;;;;;;;6.37;3.97;;;;;;;28.83;34.19;98977.34;7199477;40;20581;31
2023/06/12 11:10:14;;;;;;;7.75;4.68;;;;;;;28.47;34.37;98968.50;7159175;40;20398;31
2023/06/12 11:15:55;;;;;;;6.07;4.50;;;;;;;28.75;33.67;98963.28;7190135;40;20273;31
2023/06/12 11:21:32;;;;;;;5.95;4.47;;;;;;;29.06;33.43;98962.72;7150803;40;20337;31
2023/06/12 11:27:07;;;;;;;4.70;4.30;;;;;;;29.37;32.55;98943.81;7178944;40;20250;31
2023/06/12 11:32:26;;;;;;;4.40;4.00;;;;;;;29.24;31.56;98947.25;7034444;40;20302;31
2023/06/12 11:38:01;;;;;;;5.34;4.34;;;;;;;29.31;32.06;98949.72;7248674;40;20277;31
2023/06/12 11:48:26;;;;;;;5.20;4.70;;;;;;;29.40;32.34;98943.22;7223709;40;20539;31
2023/06/12 11:59:05;;;;;;;5.10;4.30;;;;;;;29.52;32.35;98931.69;7254844;39;21023;31
2023/06/12 12:04:40;;;;;;;4.85;4.37;;;;;;;29.25;31.92;98923.09;7257084;40;20231;31
2023/06/12 12:09:49;;;;;;;4.75;4.20;;;;;;;29.37;31.62;98921.59;7208053;40;21393;31
2023/06/12 12:15:25;;;;;;;4.75;4.30;;;;;;;29.41;33.00;98917.09;7199334;40;20328;31
2023/06/12 12:21:02;;;;;;;5.75;4.20;;;;;;;29.59;32.56;98921.03;7234134;40;20584;31
2023/06/12 12:26:38;;;;;;;4.50;4.10;;;;;;;29.71;31.46;98915.03;7275939;40;20242;31
2023/06/12 12:32:14;;;;;;;5.80;4.35;;;;;;;29.98;31.31;98904.13;7227415;40;20349;31
2023/06/12 12:37:35;;;;;;;5.20;4.28;;;;;;;30.09;30.62;98907.59;7216856;40;20445;31
2023/06/12 12:42:55;;;;;;;4.75;4.35;;;;;;;30.07;30.54;98890.38;7219748;40;20262;31
2023/06/12 12:48:31;;;;;;;5.15;4.18;;;;;;;30.22;30.28;98899.31;7241931;40;20451;31
2023/06/12 12:54:07;;;;;;;5.45;4.35;;;;;;;30.24;28.91;98883.16;7264096;39;20240;31
2023/06/12 12:59:45;;;;;;;4.78;4.35;;;;;;;30.41;30.24;98886.19;7235300;40;20249;31
2023/06/12 13:05:22;;;;;;;5.15;4.15;;;;;;;30.30;29.45;98879.16;7287065;40;20256;31
2023/06/12 13:10:58;;;;;;;6.95;4.47;;;;;;;30.54;30.48;98883.81;7263893;40;20340;31
2023/06/12 13:16:34;;;;;;;8.80;4.24;;;;;;;30.60;27.95;98883.41;7267888;40;20242;31
2023/06/12 13:22:11;;;;;;;4.55;4.10;;;;;;;30.55;28.09;98879.87;7229415;40;20265;31
2023/06/12 13:27:32;;;;;;;4.67;4.27;;;;;;;30.48;28.12;98871.13;7210277;40;20246;31
2023/06/12 13:33:07;;;;;;;5.30;4.40;;;;;;;30.41;28.46;98868.69;7224242;40;20909;31
2023/06/12 13:38:41;;;;;;;6.23;4.30;;;;;;;30.68;29.29;98874.34;7276862;40;20344;31
2023/06/12 13:44:17;;;;;;;5.90;4.10;;;;;;;30.79;28.08;98864.69;7249329;40;20274;31
2023/06/12 13:49:49;;;;;;;6.95;4.35;;;;;;;30.77;28.02;98866.13;7258505;40;20348;31
2023/06/12 13:55:26;;;;;;;5.10;4.60;;;;;;;30.65;29.42;98860.22;7233256;40;20261;31
2023/06/12 14:01:01;;;;;;;4.85;4.40;;;;;;;30.53;28.23;98848.78;7220083;40;20438;31
2023/06/12 14:06:36;;;;;;;9.73;3.97;;;;;;;30.60;27.71;98863.09;7263571;40;20276;31
2023/06/12 14:12:12;;;;;;;5.03;4.00;;;;;;;30.72;28.75;98836.44;7322588;39;20256;31
2023/06/12 14:17:47;;;;;;;5.47;4.05;;;;;;;30.83;27.83;98849.03;7258940;40;20249;31
2023/06/12 14:23:23;;;;;;;4.85;3.95;;;;;;;30.76;27.28;98845.00;7259408;40;20261;31
2023/06/12 14:28:59;;;;;;;5.40;4.15;;;;;;;30.68;26.37;98838.19;7287635;39;20279;31
2023/06/12 14:34:34;;;;;;;6.62;4.00;;;;;;;30.63;26.14;98831.91;7206889;40;20325;31
2023/06/12 14:40:09;;;;;;;6.40;3.85;;;;;;;30.49;26.65;98836.59;7260401;39;20265;31
2023/06/12 14:50:48;;;;;;;4.32;3.90;;;;;;;30.66;26.65;98818.19;7307049;39;20467;31
2023/06/12 14:56:08;;;;;;;5.85;3.75;;;;;;;30.80;26.42;98824.56;7318835;39;20384;31
2023/06/12 15:01:44;;;;;;;5.90;4.00;;;;;;;30.65;26.16;98812.91;7301487;39;20422;31
2023/06/12 15:07:18;;;;;;;4.43;3.62;;;;;;;30.34;25.61;98802.31;7316657;39;20458;31
2023/06/12 15:17:57;;;;;;;5.00;4.07;;;;;;;30.47;25.62;98811.84;7272002;40;20266;31
2023/06/12 15:28:38;;;;;;;4.90;4.20;;;;;;;30.56;26.75;98789.72;7315504;39;20443;31
2023/06/12 15:33:58;;;;;;;4.48;3.80;;;;;;;30.59;26.61;98786.31;7277310;39;20249;31
2023/06/12 15:39:19;;;;;;;4.68;3.97;;;;;;;30.62;26.86;98782.94;7270059;40;20288;31
2023/06/12 15:44:54;;;;;;;5.15;4.00;;;;;;;30.40;26.54;98787.22;7255161;40;20297;31
2023/06/12 15:50:14;;;;;;;4.90;3.65;;;;;;;30.43;27.23;98777.41;7239298;40;20269;31
2023/06/12 15:55:50;;;;;;;5.85;4.37;;;;;;;30.43;27.56;98769.06;7239500;40;20253;31
2023/06/12 16:01:26;;;;;;;6.68;4.20;;;;;;;30.35;27.35;98764.22;7257079;40;20261;31
2023/06/12 16:07:01;;;;;;;5.98;3.90;;;;;;;30.24;27.92;98771.91;7268105;40;20283;31
2023/06/12 16:12:21;;;;;;;5.45;4.25;;;;;;;30.38;27.20;98772.75;7287783;39;20275;31
2023/06/12 16:17:44;;;;;;;4.22;3.83;;;;;;;30.20;27.81;98764.47;7275642;39;20414;31
2023/06/12 16:28:08;;;;;;;4.70;4.20;;;;;;;30.09;26.84;98765.78;7271002;39;20987;31
2023/06/12 16:33:46;;;;;;;9.85;4.07;;;;;;;30.04;27.30;98761.16;7314062;39;20241;31
2023/06/12 16:39:06;;;;;;;7.20;4.55;;;;;;;30.14;27.57;98758.19;7344014;39;20251;31
2023/06/12 16:44:28;;;;;;;4.60;4.20;;;;;;;30.03;27.95;98753.09;7362447;39;20581;31
2023/06/12 16:50:04;;;;;;;4.70;4.30;;;;;;;29.98;28.40;98754.00;7330406;39;20392;31
2023/06/12 16:55:21;;;;;;;5.80;4.10;;;;;;;29.70;28.74;98753.06;7276313;40;20512;31
2023/06/12 17:00:56;;;;;;;5.50;3.90;;;;;;;29.49;27.57;98740.59;7288898;39;20512;31
2023/06/12 17:11:36;;;;;;;4.60;4.20;;;;;;;28.92;28.87;98742.47;7350218;39;20267;31
2023/06/12 17:17:12;;;;;;;4.50;4.10;;;;;;;28.68;29.06;98741.66;7274646;39;20284;31
2023/06/12 17:22:28;;;;;;;5.93;4.00;;;;;;;28.71;28.84;98751.34;7275241;39;20276;31
2023/06/12 17:28:03;;;;;;;4.40;4.00;;;;;;;28.57;28.52;98729.84;7239509;40;20328;31
2023/06/12 17:33:38;;;;;;;5.30;4.10;;;;;;;28.53;28.85;98734.34;7241231;40;20237;31
2023/06/12 17:39:13;;;;;;;4.53;4.10;;;;;;;28.42;29.06;98731.97;7295361;39;20455;31
2023/06/12 17:44:46;;;;;;;4.70;4.30;;;;;;;28.36;29.98;98733.13;7305921;39;20356;31
2023/06/12 17:50:22;;;;;;;4.82;4.30;;;;;;;28.24;28.73;98725.22;7299631;39;20312;31
2023/06/12 17:55:43;;;;;;;5.60;4.10;;;;;;;28.15;29.46;98733.38;7267529;40;20367;31
2023/06/12 18:01:18;;;;;;;5.20;4.37;;;;;;;28.03;29.42;98740.38;7260293;40;20254;31
2023/06/12 18:06:39;;;;;;;4.43;3.83;;;;;;;27.89;28.73;98750.47;7262237;40;20365;31
2023/06/12 18:12:14;;;;;;;5.00;4.43;;;;;;;27.94;30.17;98734.66;7243726;40;20322;31
2023/06/12 18:17:47;;;;;;;7.57;4.37;;;;;;;27.75;30.59;98733.69;7251154;40;20393;31
2023/06/12 18:23:06;;;;;;;5.05;4.55;;;;;;;27.66;30.27;98738.19;7083995;40;20441;31
2023/06/12 18:28:29;;;;;;;4.50;4.10;;;;;;;27.58;29.68;98730.50;7284594;39;20308;31
2023/06/12 18:34:02;;;;;;;6.28;4.45;;;;;;;27.56;30.22;98732.72;7288644;39;20426;31
2023/06/12 18:39:23;;;;;;;6.35;4.30;;;;;;;27.43;30.06;98733.34;7283222;40;20721;31
2023/06/12 18:44:43;;;;;;;7.70;4.50;;;;;;;27.34;30.54;98736.72;7343602;39;20400;31
2023/06/12 18:50:19;;;;;;;6.95;4.30;;;;;;;27.15;30.29;98735.75;7298718;39;20252;31
2023/06/12 18:55:41;;;;;;;4.95;4.37;;;;;;;27.05;30.77;98741.34;7337010;39;20321;31
2023/06/12 19:01:15;;;;;;;4.68;4.00;;;;;;;27.01;30.16;98736.66;7352212;39;20263;31
2023/06/12 19:06:51;;;;;;;6.37;3.90;;;;;;;26.95;30.30;98741.38;7302018;39;20252;31
2023/06/12 19:12:27;;;;;;;5.68;4.15;;;;;;;26.94;31.39;98749.97;7254510;40;20274;31
2023/06/12 19:18:03;;;;;;;6.00;4.40;;;;;;;26.77;30.55;98744.75;7303310;39;20409;31
2023/06/12 19:23:40;;;;;;;5.37;4.20;;;;;;;26.63;30.14;98763.06;7294404;39;20650;31
2023/06/12 19:29:01;;;;;;;6.10;4.10;;;;;;;26.64;31.00;98761.94;7270124;40;20654;31
2023/06/12 19:34:35;;;;;;;4.65;4.05;;;;;;;26.51;30.96;98765.28;7305380;39;20806;31
2023/06/12 19:40:12;;;;;;;6.13;4.13;;;;;;;26.44;31.07;98776.66;7211193;40;20895;31
2023/06/12 19:45:46;;;;;;;6.65;3.75;;;;;;;26.23;30.80;98772.28;7189113;40;20261;31
2023/06/12 19:51:07;;;;;;;4.67;4.13;;;;;;;25.96;32.69;98791.88;7157463;40;21212;31
2023/06/12 19:56:43;;;;;;;5.32;4.00;;;;;;;25.62;34.24;98785.25;7212847;40;20806;31
2023/06/12 20:02:19;;;;;;;4.25;3.83;;;;;;;25.33;33.95;98776.59;7224954;40;20284;31
2023/06/12 20:13:01;;;;;;;15.75;5.30;;;;;;;24.87;35.95;98781.97;7270377;40;21344;31
2023/06/12 20:18:36;;;;;;;9.67;4.27;;;;;;;24.73;35.83;98785.44;7261164;40;20320;31
2023/06/12 20:24:11;;;;;;;11.18;4.80;;;;;;;24.46;38.02;98793.84;7327939;39;20641;31
2023/06/12 20:29:45;;;;;;;8.63;4.90;;;;;;;24.20;37.78;98790.91;7279798;40;20257;31
2023/06/12 20:35:21;;;;;;;9.15;4.85;;;;;;;24.07;37.51;98782.25;7256883;40;20786;31
2023/06/12 20:40:41;;;;;;;9.80;4.95;;;;;;;23.91;38.45;98792.31;7258789;40;20265;31
2023/06/12 20:46:16;;;;;;;7.35;4.90;;;;;;;23.64;37.83;98778.59;7271112;40;20249;31
2023/06/12 20:51:51;;;;;;;9.83;4.60;;;;;;;23.47;38.13;98779.81;7246747;40;20257;31
2023/06/12 20:57:26;;;;;;;6.30;4.76;;;;;;;23.27;38.68;98783.97;7300468;39;20236;31
2023/06/12 21:03:02;;;;;;;4.65;4.20;;;;;;;23.08;38.89;98774.37;7300379;39;20403;31
2023/06/12 21:08:22;;;;;;;4.53;4.13;;;;;;;22.99;38.63;98784.22;7223660;40;20450;31
2023/06/12 21:13:43;;;;;;;8.18;4.43;;;;;;;22.91;39.27;98781.87;7287687;39;20255;31
2023/06/12 21:19:20;;;;;;;4.85;4.30;;;;;;;22.75;38.68;98782.78;7282448;40;20344;31
2023/06/12 21:24:55;;;;;;;6.90;4.50;;;;;;;22.79;39.01;98772.94;7323501;39;20255;31
2023/06/12 21:30:16;;;;;;;6.45;4.35;;;;;;;22.79;38.91;98775.69;7283859;39;20534;31
2023/06/12 21:35:47;;;;;;;6.93;4.72;;;;;;;22.72;38.05;98766.81;7275431;40;20442;31
2023/06/12 21:41:07;;;;;;;5.00;4.50;;;;;;;22.65;37.12;98771.63;7275306;40;20268;31
2023/06/12 21:46:28;;;;;;;5.43;4.32;;;;;;;22.52;38.06;98772.00;7290590;39;20260;31
2023/06/12 21:52:05;;;;;;;4.75;4.30;;;;;;;22.45;38.25;98786.78;7325844;39;20299;31
2023/06/12 21:57:25;;;;;;;8.95;4.37;;;;;;;22.45;38.79;98775.78;7297666;39;20314;31
2023/06/12 22:02:45;;;;;;;6.10;4.40;;;;;;;22.43;38.19;98786.19;7308197;39;20460;31
2023/06/12 22:08:19;;;;;;;5.53;4.43;;;;;;;22.24;38.71;98789.47;7278300;39;20251;31
2023/06/12 22:13:54;;;;;;;5.90;4.62;;;;;;;22.23;39.06;98796.87;7306411;39;20332;31
2023/06/12 22:19:15;;;;;;;8.95;4.55;;;;;;;22.19;39.17;98787.47;7321625;39;20248;31
2023/06/12 22:24:48;;;;;;;7.93;4.53;;;;;;;22.00;38.46;98786.91;7301279;39;20269;31
2023/06/12 22:30:23;;;;;;;5.10;4.60;;;;;;;21.84;39.29;98784.16;7287676;40;20356;31
2023/06/12 22:35:58;;;;;;;7.45;4.80;;;;;;;21.75;39.08;98791.13;7319062;39;20252;31
2023/06/12 22:41:34;;;;;;;9.06;4.90;;;;;;;21.55;39.92;98786.94;7309152;39;20336;31
2023/06/12 22:47:10;;;;;;;5.50;4.90;;;;;;;21.47;39.72;98784.59;7270552;40;20242;31
2023/06/12 22:52:46;;;;;;;7.72;5.05;;;;;;;21.39;40.05;98787.75;7229081;40;20510;31
2023/06/12 22:58:18;;;;;;;5.00;4.40;;;;;;;21.16;41.32;98785.09;7243903;40;20507;31
2023/06/12 23:08:59;;;;;;;5.00;4.43;;;;;;;21.14;40.17;98787.28;7264207;40;20280;31
2023/06/12 23:19:35;;;;;;;5.72;4.90;;;;;;;21.07;41.23;98775.56;7358124;39;20275;31
2023/06/12 23:29:59;;;;;;;6.50;4.90;;;;;;;20.95;41.68;98781.13;7296349;39;21181;31
2023/06/12 23:40:38;;;;;;;5.55;4.50;;;;;;;20.79;42.12;98789.28;7349491;39;20270;31
2023/06/12 23:46:14;;;;;;;8.50;4.80;;;;;;;20.68;41.42;98783.56;7315643;39;20344;31
2023/06/12 23:56:53;;;;;;;8.70;5.07;;;;;;;20.47;42.82;98789.69;7257419;40;20314;31
